Terminal Aerodrome Forecast
Issued by NWS

Home | Current Version | Previous Version | Graphics & Text | Print | Product List | Glossary On
Versions: 1 2 3 4 5 6 7 8 9 10 11 12 13 14 15 16 17 18 19 20 21
000
FTUS43 KLOT 241730
TAFGYY
TAF
KGYY 241730Z 2418/2518 21012KT P6SM SCT250
     FM250100 21006KT P6SM BKN250
     FM251000 20005KT 4SM BR SCT050 BKN250
     FM251500 16010KT P6SM SCT050 BKN200=

USA.gov is the U.S. government's official web portal to all federal, state and local government web resources and services.